Time;durP1;ratioP1;P1;durP2;ratioP2;P2;SDS_P1;SDS_P2;PMS_P1;PMS_P2;Temp;Humidity;BMP_temperature;BMP_pressure;BME280_temperature;BME280_humidity;BME280_pressure;Samples;Min_cycle;Max_cycle;Signal;HPM_P1;HPM_P2
2023/10/15 00:02:14;;;;;;;6.10;1.50;;;8.70;99.90;;;;;;5069942;28;20178;-70
2023/10/15 00:04:39;;;;;;;5.97;2.80;;;8.70;99.90;;;;;;5054803;28;20174;-71
2023/10/15 00:07:06;;;;;;;4.53;1.77;;;8.70;99.90;;;;;;5064304;28;20196;-71
2023/10/15 00:09:33;;;;;;;10.57;1.73;;;8.60;99.90;;;;;;5067001;28;20173;-70
2023/10/15 00:11:59;;;;;;;6.87;1.83;;;8.60;99.90;;;;;;5037541;28;20448;-73
2023/10/15 00:14:25;;;;;;;4.93;2.13;;;8.60;99.90;;;;;;5054784;28;20488;-72
2023/10/15 00:16:51;;;;;;;4.43;2.17;;;8.60;99.90;;;;;;5066795;28;20449;-73
2023/10/15 00:19:16;;;;;;;5.47;1.50;;;8.60;99.90;;;;;;5054132;28;20446;-72
2023/10/15 00:21:42;;;;;;;3.70;2.03;;;8.60;99.90;;;;;;5067979;28;20639;-72
2023/10/15 00:24:10;;;;;;;6.20;2.10;;;8.60;99.90;;;;;;5057432;28;20172;-72
2023/10/15 00:26:38;;;;;;;7.30;2.50;;;8.60;99.90;;;;;;5066714;28;20953;-70
2023/10/15 00:29:07;;;;;;;6.80;1.87;;;8.50;99.90;;;;;;5031724;28;20423;-71
2023/10/15 00:31:34;;;;;;;7.17;1.73;;;8.50;99.90;;;;;;5050007;28;20417;-74
2023/10/15 00:33:59;;;;;;;10.03;1.53;;;8.40;99.90;;;;;;5073289;28;20789;-72
2023/10/15 00:36:26;;;;;;;5.40;3.17;;;8.40;99.90;;;;;;5072869;28;20456;-71
2023/10/15 00:38:52;;;;;;;7.03;2.00;;;8.30;99.90;;;;;;5072987;28;20167;-71
2023/10/15 00:41:17;;;;;;;8.10;1.93;;;8.30;99.90;;;;;;5072857;28;20436;-72
2023/10/15 00:43:55;;;;;;;4.57;1.87;;;8.30;99.90;;;;;;5072822;28;20178;-71
2023/10/15 00:46:23;;;;;;;6.37;2.23;;;8.40;99.90;;;;;;5061524;28;20226;-72
2023/10/15 00:48:49;;;;;;;7.37;1.90;;;8.40;99.90;;;;;;5051192;28;20411;-71
2023/10/15 00:51:20;;;;;;;5.10;1.60;;;8.30;99.90;;;;;;5068699;28;20763;-71
2023/10/15 00:53:51;;;;;;;11.77;1.93;;;8.40;99.90;;;;;;5055524;28;20421;-71
2023/10/15 00:56:22;;;;;;;5.97;1.90;;;8.30;99.90;;;;;;5064368;28;20454;-71
2023/10/15 00:59:07;;;;;;;8.17;4.10;;;8.30;99.90;;;;;;5064632;28;20409;-70
2023/10/15 01:01:40;;;;;;;4.13;2.27;;;8.30;99.90;;;;;;5056116;28;20808;-71
2023/10/15 01:04:09;;;;;;;7.03;2.30;;;8.40;99.90;;;;;;5054985;28;20410;-75
2023/10/15 01:06:37;;;;;;;5.60;2.30;;;8.30;99.90;;;;;;5066758;28;20424;-71
2023/10/15 01:09:17;;;;;;;7.33;2.50;;;8.30;99.90;;;;;;5055776;28;20437;-71
2023/10/15 01:11:44;;;;;;;5.90;2.70;;;8.20;99.90;;;;;;5065391;28;20394;-70
2023/10/15 01:14:11;;;;;;;9.37;1.73;;;8.10;99.90;;;;;;5063019;28;20409;-72
2023/10/15 01:16:38;;;;;;;6.17;2.03;;;8.10;99.90;;;;;;5057573;28;20460;-70
2023/10/15 01:22:03;;;;;;;3.43;1.53;;;8.30;99.90;;;;;;5058016;28;20430;-71
2023/10/15 01:24:36;;;;;;;5.13;2.37;;;8.20;99.90;;;;;;5058186;28;21004;-70
2023/10/15 01:27:09;;;;;;;4.60;1.67;;;8.20;99.90;;;;;;5068401;28;20471;-71
2023/10/15 01:29:38;;;;;;;6.97;2.90;;;8.10;99.90;;;;;;5057724;28;20417;-72
2023/10/15 01:32:10;;;;;;;5.23;1.47;;;8.10;99.90;;;;;;5062070;28;21005;-71
2023/10/15 01:34:45;;;;;;;6.60;2.60;;;8.10;99.90;;;;;;5066013;28;20468;-70
2023/10/15 01:39:47;;;;;;;3.03;1.43;;;8.20;99.90;;;;;;5060097;28;20413;-70
2023/10/15 01:47:44;;;;;;;10.07;2.10;;;8.10;99.90;;;;;;5065726;28;20402;-71
2023/10/15 01:50:14;;;;;;;5.70;2.20;;;8.10;99.90;;;;;;5056941;28;20413;-71
2023/10/15 01:52:43;;;;;;;4.00;1.90;;;8.10;99.90;;;;;;5042929;28;20942;-71
2023/10/15 01:55:09;;;;;;;10.20;2.33;;;8.10;99.90;;;;;;5051763;28;20413;-72
2023/10/15 01:57:39;;;;;;;7.00;2.60;;;8.10;99.90;;;;;;5051449;28;20468;-72
2023/10/15 02:00:12;;;;;;;5.43;1.97;;;8.10;99.90;;;;;;5047160;28;20417;-71
2023/10/15 02:02:39;;;;;;;5.53;1.77;;;8.00;99.90;;;;;;5052712;23;20855;-72
2023/10/15 02:05:16;;;;;;;17.17;2.17;;;7.90;99.90;;;;;;5055316;28;20412;-70
2023/10/15 02:07:42;;;;;;;5.73;1.87;;;8.00;99.90;;;;;;5058599;28;20428;-69
2023/10/15 02:10:12;;;;;;;5.43;1.93;;;8.00;99.90;;;;;;5050862;28;20429;-69
2023/10/15 02:12:38;;;;;;;3.63;1.70;;;8.00;99.90;;;;;;5051139;28;20429;-68
2023/10/15 02:15:13;;;;;;;6.47;1.70;;;8.10;99.90;;;;;;5051411;28;20797;-68
2023/10/15 02:17:42;;;;;;;4.10;1.87;;;8.10;99.90;;;;;;5051001;28;20226;-68
2023/10/15 02:20:11;;;;;;;9.00;1.93;;;8.10;99.90;;;;;;5051168;28;20414;-68
2023/10/15 02:22:38;;;;;;;5.73;1.60;;;8.10;99.90;;;;;;5050814;28;20446;-69
2023/10/15 02:25:04;;;;;;;7.00;2.97;;;8.20;99.90;;;;;;5045630;28;20915;-68
2023/10/15 02:27:35;;;;;;;3.80;1.97;;;8.30;99.90;;;;;;5022812;28;20512;-68
2023/10/15 02:30:01;;;;;;;5.60;2.30;;;8.30;99.90;;;;;;5050872;28;20167;-70
2023/10/15 02:34:54;;;;;;;4.30;1.83;;;8.40;99.90;;;;;;5047025;28;20414;-70
2023/10/15 02:37:27;;;;;;;11.50;2.20;;;8.40;99.90;;;;;;5032847;28;20196;-69
2023/10/15 02:39:54;;;;;;;6.57;1.87;;;8.40;99.90;;;;;;5051153;28;20409;-70
2023/10/15 02:42:20;;;;;;;6.40;1.73;;;8.40;99.90;;;;;;5032647;28;20437;-70
2023/10/15 02:44:50;;;;;;;3.87;1.70;;;8.40;99.90;;;;;;5050590;28;20826;-70
2023/10/15 02:47:28;;;;;;;14.23;2.10;;;8.30;99.90;;;;;;5051050;28;20393;-70
2023/10/15 02:50:03;;;;;;;12.07;1.80;;;8.30;99.90;;;;;;5034855;28;20433;-70
2023/10/15 02:52:35;;;;;;;5.93;1.83;;;8.20;99.90;;;;;;5032128;28;20794;-70
2023/10/15 02:55:07;;;;;;;11.73;2.37;;;8.10;99.90;;;;;;5042319;28;20484;-70
2023/10/15 02:57:38;;;;;;;4.10;2.13;;;8.10;99.90;;;;;;5050198;28;20601;-70
2023/10/15 03:00:28;;;;;;;5.80;2.07;;;8.10;99.90;;;;;;5049015;28;20496;-67
2023/10/15 03:02:57;;;;;;;5.73;1.77;;;8.00;99.90;;;;;;5025828;28;20502;-70
2023/10/15 03:05:30;;;;;;;2.90;1.60;;;7.90;99.90;;;;;;5047314;28;20405;-70
2023/10/15 03:07:59;;;;;;;6.93;2.20;;;7.90;99.90;;;;;;5050383;28;20410;-71
2023/10/15 03:10:28;;;;;;;10.07;2.77;;;7.90;99.90;;;;;;5050282;28;20419;-69
2023/10/15 03:12:53;;;;;;;13.53;2.30;;;7.90;99.90;;;;;;5050087;28;20559;-70
2023/10/15 03:15:20;;;;;;;7.90;1.67;;;7.90;99.90;;;;;;5050815;28;20571;-66
2023/10/15 03:17:46;;;;;;;10.30;2.93;;;7.80;99.90;;;;;;5044168;28;20468;-70
2023/10/15 03:22:46;;;;;;;7.10;2.00;;;7.70;99.90;;;;;;5052732;28;20202;-70
2023/10/15 03:25:16;;;;;;;10.27;3.10;;;7.60;99.90;;;;;;5048578;28;20414;-70
2023/10/15 03:27:46;;;;;;;2.70;1.77;;;7.70;99.90;;;;;;5053730;28;20870;-69
2023/10/15 03:30:13;;;;;;;4.17;1.90;;;7.60;99.90;;;;;;5054192;28;20405;-70
2023/10/15 03:32:45;;;;;;;4.30;2.00;;;7.50;99.90;;;;;;5035059;28;20441;-69
2023/10/15 03:35:56;;;;;;;8.33;2.00;;;7.50;99.90;;;;;;5053526;28;20997;-69
2023/10/15 03:38:04;;;;;;;5.20;2.00;;;7.60;99.90;;;;;;5042809;28;20922;-70
2023/10/15 03:40:31;;;;;;;9.23;3.03;;;7.60;99.90;;;;;;5053889;28;20424;-70
2023/10/15 03:43:06;;;;;;;5.40;2.20;;;7.50;99.90;;;;;;5054206;28;20430;-70
2023/10/15 03:45:50;;;;;;;6.70;2.43;;;7.50;99.90;;;;;;5054069;28;20409;-69
2023/10/15 03:48:18;;;;;;;10.13;2.57;;;7.40;99.90;;;;;;5053379;28;20417;-70
2023/10/15 03:50:53;;;;;;;6.90;1.70;;;7.50;99.90;;;;;;5030540;28;20425;-69
2023/10/15 03:53:21;;;;;;;8.50;2.10;;;7.50;99.90;;;;;;5052500;28;20494;-70
2023/10/15 03:55:49;;;;;;;10.40;2.83;;;7.50;99.90;;;;;;5053563;28;20483;-70
2023/10/15 03:58:16;;;;;;;6.43;2.50;;;7.50;99.90;;;;;;5053500;28;20816;-71
2023/10/15 04:00:46;;;;;;;4.97;2.03;;;7.50;99.90;;;;;;5053088;28;20780;-70
2023/10/15 04:03:22;;;;;;;8.73;1.70;;;7.40;99.90;;;;;;5053065;28;20528;-70
2023/10/15 04:05:52;;;;;;;6.43;1.90;;;7.50;99.90;;;;;;5043878;28;20426;-70
2023/10/15 04:08:19;;;;;;;4.80;2.07;;;7.40;99.90;;;;;;5039417;28;20428;-70
2023/10/15 04:10:55;;;;;;;5.80;2.50;;;7.30;99.90;;;;;;5052997;28;20405;-71
2023/10/15 04:13:20;;;;;;;7.43;1.80;;;7.30;99.90;;;;;;5053158;28;20437;-70
2023/10/15 04:15:46;;;;;;;5.77;2.37;;;7.30;99.90;;;;;;5053467;28;20418;-69
2023/10/15 04:18:12;;;;;;;5.40;2.33;;;7.30;99.90;;;;;;5053359;28;20290;-69
2023/10/15 04:20:42;;;;;;;6.90;2.10;;;7.20;99.90;;;;;;5053196;28;20175;-71
2023/10/15 04:23:13;;;;;;;7.90;2.10;;;7.20;99.90;;;;;;5047544;28;20179;-70
2023/10/15 04:25:39;;;;;;;9.67;2.30;;;7.20;99.90;;;;;;5025771;28;20454;-70
2023/10/15 04:28:14;;;;;;;6.00;4.00;;;7.30;99.90;;;;;;5052657;28;20410;-70
2023/10/15 04:30:40;;;;;;;3.87;1.80;;;7.30;99.90;;;;;;5039803;28;20801;-70
2023/10/15 04:33:18;;;;;;;4.50;2.40;;;7.20;99.90;;;;;;5017293;28;20539;-70
2023/10/15 04:35:43;;;;;;;6.03;2.30;;;7.20;99.90;;;;;;5052398;28;20421;-70
2023/10/15 04:38:15;;;;;;;8.03;2.17;;;7.10;99.90;;;;;;5052500;28;20450;-70
2023/10/15 04:40:59;;;;;;;8.83;2.60;;;7.20;99.90;;;;;;5052855;28;20538;-69
2023/10/15 04:43:25;;;;;;;6.00;1.53;;;7.10;99.90;;;;;;5052214;28;20800;-70
2023/10/15 04:45:55;;;;;;;3.63;1.50;;;7.00;99.90;;;;;;5052586;28;20774;-71
2023/10/15 04:48:29;;;;;;;7.47;1.40;;;7.00;99.90;;;;;;5052368;28;20409;-70
2023/10/15 04:51:02;;;;;;;5.30;2.27;;;7.10;99.90;;;;;;5026372;28;20416;-69
2023/10/15 04:53:30;;;;;;;6.07;2.07;;;7.10;99.90;;;;;;5048421;28;20883;-69
2023/10/15 04:55:56;;;;;;;8.87;1.80;;;7.00;99.90;;;;;;5052029;28;20417;-70
2023/10/15 04:58:27;;;;;;;5.70;1.60;;;6.90;99.90;;;;;;5052185;28;20422;-70
2023/10/15 05:00:54;;;;;;;5.07;1.77;;;7.00;99.90;;;;;;5052109;28;20417;-71
2023/10/15 05:03:23;;;;;;;5.63;2.10;;;7.00;99.90;;;;;;5051315;28;20457;-70
2023/10/15 05:05:50;;;;;;;3.90;1.97;;;7.00;99.90;;;;;;5051568;28;20422;-69
2023/10/15 05:08:17;;;;;;;9.30;2.17;;;7.00;99.90;;;;;;5045634;28;20455;-70
2023/10/15 05:10:50;;;;;;;7.67;2.77;;;7.10;99.90;;;;;;5051488;28;20443;-70
2023/10/15 05:13:16;;;;;;;8.53;2.43;;;7.00;99.90;;;;;;5051210;28;20460;-70
2023/10/15 05:15:45;;;;;;;10.43;2.20;;;6.90;99.90;;;;;;5051285;28;20461;-70
2023/10/15 05:18:11;;;;;;;6.80;2.37;;;7.00;99.90;;;;;;5051577;28;20500;-70
2023/10/15 05:20:36;;;;;;;8.60;2.30;;;7.00;99.90;;;;;;5052108;28;20456;-72
2023/10/15 05:23:03;;;;;;;6.37;2.10;;;7.00;99.90;;;;;;5051633;28;20541;-70
2023/10/15 05:25:29;;;;;;;10.07;1.83;;;7.00;99.90;;;;;;5039904;28;20183;-68
2023/10/15 05:27:55;;;;;;;9.47;2.37;;;6.90;99.90;;;;;;5051171;28;20429;-69
2023/10/15 05:30:21;;;;;;;3.87;1.67;;;6.90;99.90;;;;;;5051194;28;20422;-69
2023/10/15 05:32:48;;;;;;;1.70;1.20;;;7.00;99.90;;;;;;5047448;28;20673;-72
2023/10/15 05:35:17;;;;;;;9.43;1.90;;;7.00;99.90;;;;;;5051096;28;20171;-70
2023/10/15 05:37:44;;;;;;;7.30;1.80;;;6.90;99.90;;;;;;5050701;28;20505;-70
2023/10/15 05:40:12;;;;;;;3.60;1.73;;;6.80;99.90;;;;;;5033185;28;20508;-70
2023/10/15 05:42:38;;;;;;;8.07;2.70;;;6.90;99.90;;;;;;5050850;28;20433;-70
2023/10/15 05:45:07;;;;;;;7.50;2.23;;;7.00;99.90;;;;;;5050726;28;20422;-69
2023/10/15 05:47:36;;;;;;;4.50;1.77;;;7.10;99.90;;;;;;5051002;28;20417;-71
2023/10/15 05:50:05;;;;;;;5.73;1.70;;;7.10;99.90;;;;;;5046007;28;20442;-68
2023/10/15 05:52:32;;;;;;;8.17;2.23;;;7.10;99.90;;;;;;5050775;28;20449;-71
2023/10/15 05:55:00;;;;;;;6.50;1.90;;;7.10;99.90;;;;;;5050803;28;20450;-70
2023/10/15 05:57:25;;;;;;;8.40;2.70;;;7.10;99.90;;;;;;5050903;28;20502;-70
2023/10/15 05:59:54;;;;;;;12.17;3.60;;;7.00;99.90;;;;;;5050882;28;20430;-69
2023/10/15 06:02:20;;;;;;;8.33;1.30;;;7.20;99.90;;;;;;5050798;28;20490;-68
2023/10/15 06:04:47;;;;;;;3.10;1.80;;;7.20;99.90;;;;;;5050679;28;20444;-70
2023/10/15 06:07:13;;;;;;;4.40;2.10;;;7.20;99.90;;;;;;5042866;28;20208;-70
2023/10/15 06:09:39;;;;;;;9.13;2.57;;;7.30;99.90;;;;;;5048691;28;20428;-70
2023/10/15 06:12:05;;;;;;;6.10;2.10;;;7.30;99.90;;;;;;5050529;28;20441;-70
2023/10/15 06:14:32;;;;;;;9.53;2.73;;;7.30;99.90;;;;;;5050561;28;20413;-70
2023/10/15 06:16:58;;;;;;;9.33;2.00;;;7.30;99.90;;;;;;5050680;28;20453;-70
2023/10/15 06:19:24;;;;;;;5.27;1.93;;;7.40;99.90;;;;;;5050767;28;20505;-69
2023/10/15 06:21:50;;;;;;;10.33;2.87;;;7.40;99.90;;;;;;5047153;28;20573;-70
2023/10/15 06:24:16;;;;;;;4.97;2.40;;;7.50;99.90;;;;;;5044041;28;20485;-69
2023/10/15 06:26:41;;;;;;;5.23;2.10;;;7.50;99.90;;;;;;5050434;28;20224;-70
2023/10/15 06:29:09;;;;;;;7.27;1.90;;;7.60;99.90;;;;;;5046962;28;20175;-70
2023/10/15 06:31:36;;;;;;;3.00;1.80;;;7.60;99.90;;;;;;5049981;28;20185;-70
2023/10/15 06:34:01;;;;;;;8.20;2.50;;;7.60;99.90;;;;;;5046132;28;20524;-70
2023/10/15 06:36:27;;;;;;;8.03;2.50;;;7.70;99.90;;;;;;5031954;28;20541;-70
2023/10/15 06:38:52;;;;;;;6.47;2.27;;;7.70;99.90;;;;;;5050206;28;20163;-68
2023/10/15 06:41:18;;;;;;;7.63;2.00;;;7.80;99.90;;;;;;5050522;28;20618;-70
2023/10/15 06:43:44;;;;;;;3.33;1.97;;;7.80;99.90;;;;;;5050931;28;20283;-70
2023/10/15 06:46:10;;;;;;;9.13;2.27;;;8.20;99.90;;;;;;5052698;28;20263;-69
2023/10/15 06:48:37;;;;;;;9.13;1.93;;;8.70;99.90;;;;;;5050195;28;20208;-70
2023/10/15 06:51:05;;;;;;;4.67;1.70;;;9.00;99.90;;;;;;5049923;28;20433;-70
2023/10/15 06:53:39;;;;;;;4.10;1.80;;;8.50;99.90;;;;;;5053643;28;20432;-70
2023/10/15 06:56:07;;;;;;;5.50;2.20;;;9.00;99.90;;;;;;5054193;28;20404;-70
2023/10/15 06:58:35;;;;;;;4.63;1.97;;;9.40;99.90;;;;;;5049403;28;20441;-68
2023/10/15 07:01:02;;;;;;;5.53;1.90;;;9.40;99.90;;;;;;5054011;28;20433;-69
2023/10/15 07:03:27;;;;;;;6.20;1.70;;;9.30;99.90;;;;;;5054200;28;20459;-70
2023/10/15 07:05:53;;;;;;;4.17;1.73;;;9.20;99.90;;;;;;5054004;28;20778;-69
2023/10/15 07:08:19;;;;;;;4.27;1.77;;;9.90;99.90;;;;;;5054294;28;20543;-70
2023/10/15 07:10:45;;;;;;;4.53;1.67;;;9.40;99.90;;;;;;5053766;28;20183;-69
2023/10/15 07:13:11;;;;;;;4.97;1.97;;;9.40;99.90;;;;;;5053863;28;20681;-72
2023/10/15 07:15:40;;;;;;;6.50;1.70;;;9.30;99.90;;;;;;5050178;28;20486;-72
2023/10/15 07:18:06;;;;;;;5.63;1.57;;;9.30;99.90;;;;;;5053542;28;20248;-69
2023/10/15 07:20:31;;;;;;;8.03;3.10;;;9.30;99.90;;;;;;5036502;28;20533;-75
2023/10/15 07:23:00;;;;;;;4.27;1.43;;;9.90;99.90;;;;;;5048991;28;20195;-70
2023/10/15 07:25:29;;;;;;;4.33;1.70;;;9.80;99.90;;;;;;5053748;28;20305;-71
2023/10/15 07:27:56;;;;;;;7.13;2.57;;;9.60;99.90;;;;;;5054052;28;20452;-70
2023/10/15 07:30:23;;;;;;;3.77;1.40;;;9.70;99.90;;;;;;5053666;28;20421;-70
2023/10/15 07:32:53;;;;;;;9.70;1.93;;;9.80;99.90;;;;;;5053409;28;20441;-70
2023/10/15 07:35:21;;;;;;;8.40;2.20;;;9.80;99.90;;;;;;5049122;28;20433;-71
2023/10/15 07:37:50;;;;;;;5.73;2.43;;;9.90;99.90;;;;;;5053479;28;20591;-73
2023/10/15 07:40:17;;;;;;;4.80;2.10;;;9.90;99.90;;;;;;5053776;28;20428;-69
2023/10/15 07:42:45;;;;;;;5.83;2.23;;;10.10;99.90;;;;;;5053504;28;20433;-71
2023/10/15 07:45:11;;;;;;;8.60;2.13;;;10.00;99.90;;;;;;5053268;28;20830;-70
2023/10/15 07:47:37;;;;;;;5.40;1.43;;;9.90;99.90;;;;;;5053721;28;20413;-71
2023/10/15 07:50:07;;;;;;;3.93;1.90;;;10.00;99.90;;;;;;5053480;28;20418;-71
2023/10/15 07:52:33;;;;;;;9.83;1.80;;;9.50;99.90;;;;;;5050978;28;20532;-71
2023/10/15 07:54:59;;;;;;;5.73;1.60;;;9.80;99.90;;;;;;5053352;28;20456;-69
2023/10/15 07:57:26;;;;;;;3.63;1.60;;;10.00;99.90;;;;;;5053904;28;20463;-71
2023/10/15 07:59:54;;;;;;;7.00;1.83;;;9.90;99.90;;;;;;5054632;28;20417;-70
2023/10/15 08:02:21;;;;;;;2.23;1.40;;;9.80;99.90;;;;;;5052349;28;20833;-70
2023/10/15 08:04:47;;;;;;;3.40;1.90;;;10.10;99.90;;;;;;5053356;28;20452;-69
2023/10/15 08:07:12;;;;;;;5.93;1.80;;;10.20;99.90;;;;;;5048037;28;20441;-68
2023/10/15 08:09:38;;;;;;;5.93;1.73;;;10.10;99.90;;;;;;5050128;28;20228;-71
2023/10/15 08:12:04;;;;;;;6.50;1.83;;;9.80;99.90;;;;;;5052965;28;20237;-71
2023/10/15 08:14:30;;;;;;;2.80;1.50;;;10.60;99.90;;;;;;5053282;28;20175;-71
2023/10/15 08:16:56;;;;;;;4.30;1.90;;;11.10;99.90;;;;;;5052961;28;20468;-71
2023/10/15 08:19:21;;;;;;;2.10;1.60;;;11.40;99.90;;;;;;5053091;28;20908;-71
2023/10/15 08:21:47;;;;;;;3.57;1.60;;;10.80;99.90;;;;;;5079134;22;20219;-73
2023/10/15 08:24:15;;;;;;;4.00;1.67;;;11.20;99.90;;;;;;5085241;28;20170;-74
2023/10/15 08:26:41;;;;;;;3.90;1.27;;;11.50;99.90;;;;;;5075894;28;20205;-72
2023/10/15 08:29:09;;;;;;;2.93;1.33;;;11.20;99.90;;;;;;5081377;28;20906;-72
2023/10/15 08:31:35;;;;;;;2.20;1.23;;;11.40;99.90;;;;;;5081382;28;20424;-72
2023/10/15 08:34:01;;;;;;;3.03;1.60;;;11.10;99.90;;;;;;5055005;28;20459;-72
2023/10/15 08:36:27;;;;;;;5.23;1.83;;;10.60;99.90;;;;;;5067775;28;20495;-72
2023/10/15 08:38:53;;;;;;;4.00;1.30;;;11.20;99.90;;;;;;5055235;28;20610;-71
2023/10/15 08:41:24;;;;;;;2.93;1.20;;;11.30;99.90;;;;;;5073492;28;20183;-72
2023/10/15 08:43:51;;;;;;;1.80;1.30;;;11.40;99.90;;;;;;5072923;28;20182;-73
2023/10/15 08:46:22;;;;;;;3.77;1.33;;;11.80;99.90;;;;;;5073078;28;20507;-71
2023/10/15 08:48:49;;;;;;;2.20;1.10;;;11.40;99.90;;;;;;5073095;28;20417;-73
2023/10/15 08:51:21;;;;;;;3.27;1.10;;;11.30;99.90;;;;;;5072889;28;20823;-73
2023/10/15 08:53:49;;;;;;;3.07;1.07;;;10.60;99.90;;;;;;5068051;28;20438;-73
2023/10/15 08:56:22;;;;;;;1.27;1.00;;;10.60;99.90;;;;;;5072410;28;20420;-72
2023/10/15 08:58:52;;;;;;;1.60;1.23;;;11.00;99.90;;;;;;5072415;28;20405;-72
2023/10/15 09:01:21;;;;;;;4.23;1.20;;;10.70;99.90;;;;;;5072631;28;20414;-72
2023/10/15 09:03:47;;;;;;;2.67;1.27;;;10.00;99.90;;;;;;5072337;28;20413;-72
2023/10/15 09:06:14;;;;;;;6.50;1.33;;;10.50;99.90;;;;;;5072415;28;20447;-72
2023/10/15 09:08:43;;;;;;;4.03;1.00;;;11.00;99.90;;;;;;5072235;28;20927;-72
2023/10/15 09:11:10;;;;;;;2.40;1.10;;;10.80;99.90;;;;;;5064747;28;20429;-73
2023/10/15 09:13:36;;;;;;;2.63;0.97;;;10.80;99.90;;;;;;5071672;28;20519;-73
2023/10/15 09:16:07;;;;;;;1.77;1.20;;;10.60;99.90;;;;;;5072807;28;20412;-72
2023/10/15 09:18:36;;;;;;;2.90;1.30;;;10.70;99.90;;;;;;5072719;28;20520;-73
2023/10/15 09:21:05;;;;;;;1.47;1.20;;;10.80;99.90;;;;;;5072038;28;20428;-72
2023/10/15 09:23:36;;;;;;;5.67;1.50;;;10.60;99.90;;;;;;5071775;28;20451;-73
2023/10/15 09:26:04;;;;;;;5.13;1.43;;;10.30;99.90;;;;;;5064661;28;20424;-73
2023/10/15 09:28:30;;;;;;;1.60;1.30;;;10.20;99.90;;;;;;5066696;28;20420;-71
2023/10/15 09:31:11;;;;;;;4.40;1.20;;;10.10;99.90;;;;;;5071923;28;20473;-72
2023/10/15 09:33:39;;;;;;;3.40;1.00;;;10.40;99.90;;;;;;5071895;28;20198;-72
2023/10/15 09:36:05;;;;;;;3.80;1.47;;;10.90;99.90;;;;;;5071551;28;20445;-72
2023/10/15 09:38:35;;;;;;;5.80;1.30;;;10.50;99.90;;;;;;5063631;28;20540;-72
2023/10/15 09:41:02;;;;;;;2.30;1.23;;;10.40;99.90;;;;;;5071735;28;20461;-74
2023/10/15 09:43:37;;;;;;;3.50;1.50;;;10.50;99.90;;;;;;5071687;28;20529;-72
2023/10/15 09:46:06;;;;;;;5.33;1.37;;;10.70;99.90;;;;;;5071798;28;20408;-72
2023/10/15 09:48:34;;;;;;;4.30;2.13;;;10.80;99.90;;;;;;5071573;28;20645;-72
2023/10/15 09:51:00;;;;;;;4.87;1.80;;;10.90;99.90;;;;;;5071512;28;20424;-72
2023/10/15 09:53:33;;;;;;;2.13;1.43;;;11.00;99.90;;;;;;5071506;28;20444;-72
2023/10/15 09:56:07;;;;;;;2.13;0.90;;;11.00;99.90;;;;;;5054441;28;20264;-73
2023/10/15 09:58:33;;;;;;;2.17;1.23;;;11.20;99.90;;;;;;5071762;28;20456;-71
2023/10/15 10:01:08;;;;;;;4.00;1.53;;;11.20;99.90;;;;;;5071432;28;20953;-72
2023/10/15 10:03:49;;;;;;;3.00;1.17;;;11.40;99.90;;;;;;5071400;28;20436;-71
2023/10/15 10:06:39;;;;;;;1.57;1.00;;;11.40;99.90;;;;;;5057114;28;20428;-72
2023/10/15 10:09:42;;;;;;;3.30;1.23;;;11.20;99.90;;;;;;5071499;28;20408;-71
2023/10/15 10:12:50;;;;;;;3.20;1.70;;;11.00;99.90;;;;;;5045456;28;20497;-72
2023/10/15 10:15:54;;;;;;;6.00;1.30;;;10.90;99.90;;;;;;5057126;28;20408;-72
2023/10/15 10:18:21;;;;;;;5.23;1.50;;;10.90;99.90;;;;;;5058198;28;20459;-72
2023/10/15 10:20:48;;;;;;;2.10;0.90;;;10.60;99.90;;;;;;5071422;28;20515;-71
2023/10/15 10:23:14;;;;;;;2.30;0.90;;;10.40;99.90;;;;;;5071406;28;20455;-72
2023/10/15 10:25:42;;;;;;;3.43;1.30;;;10.60;99.90;;;;;;5056959;28;20428;-72
2023/10/15 10:28:16;;;;;;;3.13;1.23;;;10.60;99.90;;;;;;5042583;28;20466;-72
2023/10/15 10:30:58;;;;;;;2.40;1.63;;;10.60;99.90;;;;;;5076378;28;20482;-73
2023/10/15 10:33:45;;;;;;;3.53;1.60;;;10.60;99.90;;;;;;5069504;28;20505;-72
2023/10/15 10:36:15;;;;;;;2.40;0.90;;;10.60;99.90;;;;;;5070408;28;20435;-72
2023/10/15 10:38:42;;;;;;;2.50;1.30;;;10.60;99.90;;;;;;5075823;28;20436;-74
2023/10/15 10:41:15;;;;;;;1.83;1.23;;;10.90;99.90;;;;;;5066922;28;20440;-72
2023/10/15 10:43:44;;;;;;;2.40;0.97;;;11.20;99.90;;;;;;5067585;28;20442;-71
2023/10/15 10:46:22;;;;;;;2.20;1.37;;;10.90;99.90;;;;;;5059224;28;20416;-72
2023/10/15 10:49:09;;;;;;;2.70;1.30;;;11.20;99.90;;;;;;5075188;28;20780;-73
2023/10/15 10:51:35;;;;;;;1.63;1.07;;;11.50;99.90;;;;;;5055885;28;20476;-72
2023/10/15 10:54:03;;;;;;;1.90;1.20;;;11.60;99.90;;;;;;5045427;28;20434;-73
2023/10/15 10:56:40;;;;;;;2.63;1.40;;;10.90;99.90;;;;;;5051819;28;20417;-73
2023/10/15 10:59:10;;;;;;;3.10;1.70;;;11.10;99.90;;;;;;5054501;28;20527;-73
2023/10/15 11:01:37;;;;;;;1.00;0.90;;;11.20;99.90;;;;;;5050221;28;20441;-71
2023/10/15 11:04:04;;;;;;;3.70;1.07;;;11.00;99.90;;;;;;5057346;28;20437;-72
2023/10/15 11:06:30;;;;;;;1.93;1.07;;;11.10;99.90;;;;;;5052414;28;20539;-71
2023/10/15 11:08:56;;;;;;;4.77;1.00;;;10.90;99.90;;;;;;5049162;28;20450;-71
2023/10/15 11:11:22;;;;;;;2.80;1.37;;;10.70;99.90;;;;;;5051627;28;20996;-70
2023/10/15 11:13:50;;;;;;;3.10;1.63;;;10.80;99.90;;;;;;5055982;28;20537;-72
2023/10/15 11:16:16;;;;;;;2.50;0.90;;;10.80;99.90;;;;;;5048915;28;20206;-71
2023/10/15 11:18:45;;;;;;;1.80;1.20;;;10.70;99.90;;;;;;5051592;28;20461;-73
2023/10/15 11:21:10;;;;;;;2.97;1.07;;;10.80;99.90;;;;;;5057876;28;20428;-73
2023/10/15 11:23:38;;;;;;;2.13;0.80;;;10.90;99.90;;;;;;5065716;28;20464;-73
2023/10/15 11:26:04;;;;;;;1.27;1.17;;;10.70;99.90;;;;;;5068496;28;20172;-73
2023/10/15 11:28:30;;;;;;;3.00;0.93;;;10.80;99.90;;;;;;5074308;28;20420;-71
2023/10/15 11:30:56;;;;;;;2.07;1.33;;;11.00;99.90;;;;;;5068287;28;20927;-73
2023/10/15 11:33:23;;;;;;;1.03;0.93;;;10.80;99.90;;;;;;5049390;28;20480;-73
2023/10/15 11:35:48;;;;;;;2.73;1.20;;;10.70;99.90;;;;;;5054336;28;20748;-72
2023/10/15 11:38:14;;;;;;;1.20;1.10;;;10.60;99.90;;;;;;5073763;28;20509;-72
2023/10/15 11:40:40;;;;;;;1.20;1.00;;;10.70;99.90;;;;;;5048354;28;20176;-72
2023/10/15 11:43:18;;;;;;;1.43;1.00;;;10.70;99.90;;;;;;5062304;28;20469;-71
2023/10/15 11:45:46;;;;;;;1.57;1.10;;;10.80;99.90;;;;;;5061480;28;20782;-71
2023/10/15 11:48:12;;;;;;;4.33;1.80;;;10.80;99.90;;;;;;5052808;28;20439;-70
2023/10/15 11:50:40;;;;;;;2.77;1.33;;;10.50;99.90;;;;;;5054308;28;20783;-71
2023/10/15 11:53:16;;;;;;;2.00;1.33;;;10.30;99.90;;;;;;5057739;28;20452;-71
2023/10/15 11:55:47;;;;;;;1.27;1.00;;;10.50;99.90;;;;;;5052190;28;20457;-71
2023/10/15 11:58:19;;;;;;;2.00;1.13;;;10.40;99.90;;;;;;5046340;28;20464;-71
2023/10/15 12:00:48;;;;;;;1.50;1.03;;;10.50;99.90;;;;;;5072763;28;20452;-71
2023/10/15 12:03:18;;;;;;;1.00;0.90;;;10.70;99.90;;;;;;5056885;28;20440;-72
2023/10/15 12:05:44;;;;;;;2.50;0.90;;;11.00;99.90;;;;;;5068001;28;20427;-72
2023/10/15 12:08:12;;;;;;;2.03;0.97;;;11.10;99.90;;;;;;5073631;28;20416;-71
2023/10/15 12:10:42;;;;;;;4.07;1.10;;;11.40;99.90;;;;;;5073572;28;20503;-72
2023/10/15 12:13:08;;;;;;;4.13;1.23;;;11.70;99.90;;;;;;5073518;28;20586;-71
2023/10/15 12:15:34;;;;;;;2.60;1.13;;;11.80;99.90;;;;;;5061268;28;20426;-72
2023/10/15 12:18:01;;;;;;;2.87;1.10;;;11.80;99.90;;;;;;5069616;28;20475;-72
2023/10/15 12:20:28;;;;;;;2.43;0.90;;;11.40;99.90;;;;;;5073414;28;20632;-71
2023/10/15 12:22:54;;;;;;;1.33;1.07;;;11.60;99.90;;;;;;5055105;28;20456;-71
2023/10/15 12:25:19;;;;;;;5.83;1.60;;;11.70;99.90;;;;;;5061945;28;20475;-71
2023/10/15 12:27:45;;;;;;;1.90;0.90;;;11.90;99.90;;;;;;5068259;28;20417;-72
2023/10/15 12:30:28;;;;;;;2.13;0.80;;;12.00;99.90;;;;;;5054285;28;20637;-72
2023/10/15 12:32:58;;;;;;;2.30;0.93;;;11.90;99.90;;;;;;5073389;28;20194;-71
2023/10/15 12:35:24;;;;;;;2.97;1.73;;;12.20;99.90;;;;;;5073366;28;20420;-71
2023/10/15 12:37:58;;;;;;;2.30;1.20;;;12.40;99.90;;;;;;5074178;28;20456;-72
2023/10/15 12:40:29;;;;;;;2.13;1.00;;;12.60;99.90;;;;;;5048244;28;20909;-71
2023/10/15 12:42:54;;;;;;;4.40;1.10;;;12.50;99.90;;;;;;5050088;28;20450;-71
2023/10/15 12:45:21;;;;;;;1.60;0.93;;;12.20;99.90;;;;;;5044545;28;20451;-71
2023/10/15 12:47:47;;;;;;;1.67;1.03;;;12.30;99.90;;;;;;5068194;28;20565;-71
2023/10/15 12:50:16;;;;;;;3.67;1.07;;;12.30;99.90;;;;;;5072532;28;20462;-72
2023/10/15 12:52:45;;;;;;;2.90;1.03;;;12.40;99.90;;;;;;5049150;28;20457;-72
2023/10/15 12:55:11;;;;;;;1.80;0.93;;;12.50;99.90;;;;;;5056330;28;20955;-73
2023/10/15 12:57:37;;;;;;;1.70;1.10;;;12.00;99.90;;;;;;5069145;28;20797;-72
2023/10/15 13:00:19;;;;;;;2.10;1.00;;;11.80;99.90;;;;;;5066905;28;20415;-72
2023/10/15 13:02:49;;;;;;;2.00;0.80;;;11.70;99.90;;;;;;5072533;28;20208;-73
2023/10/15 13:05:18;;;;;;;2.13;1.03;;;11.60;99.90;;;;;;5058446;28;20915;-73
2023/10/15 13:07:45;;;;;;;1.13;0.90;;;11.50;99.90;;;;;;5057003;28;20421;-73
2023/10/15 13:10:13;;;;;;;1.30;0.90;;;11.60;99.90;;;;;;5069607;28;20424;-73
2023/10/15 13:12:39;;;;;;;1.43;1.10;;;11.80;99.90;;;;;;5053031;28;20446;-73
2023/10/15 13:15:07;;;;;;;1.63;1.20;;;12.10;99.90;;;;;;5068586;28;20895;-74
2023/10/15 13:17:33;;;;;;;2.20;1.00;;;12.30;99.90;;;;;;5072139;28;20456;-72
2023/10/15 13:20:02;;;;;;;3.10;1.10;;;12.30;99.90;;;;;;5058409;28;20429;-71